createdAt,value
2022-12-11T00:00:18.417Z,95238.81
2022-12-11T00:02:46.065Z,95230.50
2022-12-11T00:05:13.613Z,95231.81
2022-12-11T00:07:43.008Z,95239.47
2022-12-11T00:10:10.730Z,95241.06
2022-12-11T00:12:38.157Z,95229.22
2022-12-11T00:15:06.249Z,95238.06
2022-12-11T00:17:33.735Z,95237.25
2022-12-11T00:20:01.271Z,95227.78
2022-12-11T00:22:30.928Z,95198.84
2022-12-11T00:24:59.790Z,95230.78
2022-12-11T00:27:27.267Z,95232.97
2022-12-11T00:29:54.756Z,95239.16
2022-12-11T00:32:22.211Z,95239.38
2022-12-11T00:34:49.714Z,95244.72
2022-12-11T00:37:17.305Z,95223.84
2022-12-11T00:39:45.446Z,95234.53
2022-12-11T00:42:14.215Z,95229.81
2022-12-11T00:44:41.679Z,95235.78
2022-12-11T00:47:09.133Z,95216.50
2022-12-11T00:49:36.554Z,95243.00
2022-12-11T00:52:04.125Z,95241.16
2022-12-11T00:54:31.597Z,95243.56
2022-12-11T00:56:59.089Z,95246.03
2022-12-11T00:59:29.170Z,95240.94
2022-12-11T01:01:56.669Z,95227.03
2022-12-11T01:04:24.513Z,95235.34
2022-12-11T01:06:54.379Z,95229.25
2022-12-11T01:09:38.681Z,95241.16
2022-12-11T01:12:06.407Z,95227.03
2022-12-11T01:14:35.187Z,95231.53
2022-12-11T01:17:02.686Z,95233.25
2022-12-11T01:19:30.322Z,95243.72
2022-12-11T01:21:57.803Z,95244.19
2022-12-11T01:24:25.264Z,95226.94
2022-12-11T01:26:52.734Z,95242.31
2022-12-11T01:29:20.216Z,95241.59
2022-12-11T01:31:49.047Z,95243.56
2022-12-11T01:34:16.500Z,95235.72
2022-12-11T01:36:44.043Z,95239.44
2022-12-11T01:39:11.660Z,95222.31
2022-12-11T01:41:39.208Z,95219.72
2022-12-11T01:44:09.209Z,95160.78
2022-12-11T01:46:37.665Z,95223.84
2022-12-11T01:49:10.034Z,95217.53
2022-12-11T01:51:41.358Z,95200.59
2022-12-11T01:54:12.286Z,95209.91
2022-12-11T01:56:42.785Z,95205.19
2022-12-11T01:59:10.933Z,95215.13
2022-12-11T02:01:43.175Z,95214.50
2022-12-11T02:04:13.062Z,95216.75
2022-12-11T02:06:42.952Z,95211.81
2022-12-11T02:09:13.319Z,95223.38
2022-12-11T02:11:52.754Z,95221.53
2022-12-11T02:14:29.779Z,95213.88
2022-12-11T02:17:05.407Z,95219.16
2022-12-11T02:19:52.899Z,95206.50
2022-12-11T02:22:29.714Z,95216.28
2022-12-11T02:25:10.679Z,95207.38
2022-12-11T02:27:45.075Z,95204.44
2022-12-11T02:30:16.667Z,95207.06
2022-12-11T02:32:48.701Z,95214.13
2022-12-11T02:35:21.340Z,95217.06
2022-12-11T02:37:52.575Z,95213.75
2022-12-11T02:40:25.751Z,95209.19
2022-12-11T02:42:55.965Z,95213.31
2022-12-11T02:45:27.228Z,95202.72
2022-12-11T02:47:54.832Z,95208.44
2022-12-11T02:50:24.381Z,95200.19
2022-12-11T02:52:55.661Z,95199.81
2022-12-11T02:55:25.204Z,95193.41
2022-12-11T02:57:57.538Z,95185.09
2022-12-11T03:00:26.367Z,95198.25
2022-12-11T03:02:54.190Z,95189.75
2022-12-11T03:05:21.956Z,95185.75
2022-12-11T03:07:49.718Z,95188.31
2022-12-11T03:10:19.852Z,95180.91
2022-12-11T03:12:53.608Z,95186.22
2022-12-11T03:15:23.929Z,95190.41
2022-12-11T03:18:05.013Z,95205.13
2022-12-11T03:20:39.362Z,95203.16
2022-12-11T03:23:16.889Z,95199.66
2022-12-11T03:25:50.947Z,95167.91
2022-12-11T03:28:22.334Z,95180.16
2022-12-11T03:30:52.359Z,95165.97
2022-12-11T03:33:26.469Z,95192.91
2022-12-11T03:35:57.580Z,95190.22
2022-12-11T03:38:32.158Z,95193.28
2022-12-11T03:41:03.251Z,95154.34
2022-12-11T03:43:32.684Z,95177.44
2022-12-11T03:46:01.658Z,95182.94
2022-12-11T03:48:35.205Z,95180.75
2022-12-11T03:51:06.075Z,95192.75
2022-12-11T03:53:35.405Z,95192.56
2022-12-11T03:56:05.091Z,95188.84
2022-12-11T03:58:33.180Z,95189.63
2022-12-11T04:01:00.651Z,95171.91
2022-12-11T04:03:29.704Z,95170.06
2022-12-11T04:05:57.356Z,95173.19
2022-12-11T04:08:24.948Z,95194.41
2022-12-11T04:11:13.875Z,95163.94
2022-12-11T04:13:42.368Z,95175.94
2022-12-11T04:16:09.387Z,95172.09
2022-12-11T04:18:55.943Z,95200.03
2022-12-11T04:21:40.130Z,95187.44
2022-12-11T04:24:17.205Z,95183.31
2022-12-11T04:26:45.856Z,95186.84
2022-12-11T04:29:14.128Z,95172.91
2022-12-11T04:31:41.788Z,95174.06
2022-12-11T04:34:10.629Z,95173.47
2022-12-11T04:36:38.542Z,95164.41
2022-12-11T04:39:06.904Z,95161.88
2022-12-11T04:41:35.040Z,95166.84
2022-12-11T04:44:02.551Z,95147.41
2022-12-11T04:46:30.138Z,95146.59
2022-12-11T04:48:58.112Z,95155.84
2022-12-11T04:51:27.908Z,95140.34
2022-12-11T04:53:55.957Z,95125.19
2022-12-11T04:56:23.688Z,95137.78
2022-12-11T04:58:51.175Z,95141.31
2022-12-11T05:01:21.100Z,95136.97
2022-12-11T05:03:48.907Z,95130.13
2022-12-11T05:06:16.517Z,95132.84
2022-12-11T05:08:46.297Z,95139.91
2022-12-11T05:11:15.718Z,95142.47
2022-12-11T05:13:43.573Z,95141.31
2022-12-11T05:16:13.641Z,95142.66
2022-12-11T05:18:41.415Z,95147.94
2022-12-11T05:21:11.330Z,95148.16
2022-12-11T05:23:39.269Z,95149.94
2022-12-11T05:26:12.457Z,95137.38
2022-12-11T05:28:40.694Z,95148.00
2022-12-11T05:31:12.619Z,95123.19
2022-12-11T05:33:40.472Z,95120.31
2022-12-11T05:36:09.050Z,95142.53
2022-12-11T05:38:36.542Z,95134.88
2022-12-11T05:41:06.198Z,95141.91
2022-12-11T05:43:37.342Z,95139.00
2022-12-11T05:46:09.064Z,95147.19
2022-12-11T05:48:37.942Z,95132.47
2022-12-11T05:51:06.419Z,95146.59
2022-12-11T05:53:34.109Z,95153.50
2022-12-11T05:56:06.305Z,95151.34
2022-12-11T05:58:35.781Z,95146.06
2022-12-11T06:01:03.541Z,95132.25
2022-12-11T06:03:30.972Z,95147.03
2022-12-11T06:05:58.418Z,95142.69
2022-12-11T06:08:25.909Z,95149.75
2022-12-11T06:10:53.443Z,95136.16
2022-12-11T06:13:21.192Z,95149.16
2022-12-11T06:15:50.088Z,95139.13
2022-12-11T06:18:17.783Z,95159.34
2022-12-11T06:20:45.613Z,95155.53
2022-12-11T06:23:13.081Z,95157.94
2022-12-11T06:25:41.226Z,95158.09
2022-12-11T06:28:08.809Z,95125.16
2022-12-11T06:30:38.658Z,95148.94
2022-12-11T06:33:08.345Z,95143.06
2022-12-11T06:35:41.671Z,95150.13
2022-12-11T06:38:10.374Z,95149.91
2022-12-11T06:40:38.093Z,95159.13
2022-12-11T06:43:05.611Z,95147.66
2022-12-11T06:45:33.270Z,95138.94
2022-12-11T06:48:00.809Z,95120.63
2022-12-11T06:50:29.738Z,95141.78
2022-12-11T06:52:57.853Z,95120.28
2022-12-11T06:55:25.300Z,95142.09
2022-12-11T06:57:52.759Z,95143.66
2022-12-11T07:00:20.429Z,95159.66
2022-12-11T07:02:47.862Z,95156.50
2022-12-11T07:05:15.294Z,95161.13
2022-12-11T07:07:44.080Z,95159.91
2022-12-11T07:10:11.797Z,95150.97
2022-12-11T07:12:39.393Z,95160.16
2022-12-11T07:15:07.985Z,95162.09
2022-12-11T07:17:35.610Z,95179.00
2022-12-11T07:20:03.718Z,95165.72
2022-12-11T07:22:31.213Z,95172.53
2022-12-11T07:24:59.988Z,95163.72
2022-12-11T07:27:27.414Z,95158.81
2022-12-11T07:29:55.429Z,95145.81
2022-12-11T07:32:23.181Z,95160.66
2022-12-11T07:34:52.077Z,95156.50
2022-12-11T07:37:19.754Z,95159.09
2022-12-11T07:39:48.842Z,95164.19
2022-12-11T07:42:17.734Z,95156.03
2022-12-11T07:44:45.169Z,95161.94
2022-12-11T07:47:12.622Z,95158.22
2022-12-11T07:49:40.074Z,95157.84
2022-12-11T07:52:07.512Z,95149.59
2022-12-11T07:54:34.924Z,95157.28
2022-12-11T07:57:02.502Z,95155.13
2022-12-11T07:59:31.339Z,95148.63
2022-12-11T08:01:58.811Z,95147.63
2022-12-11T08:04:26.291Z,95153.31
2022-12-11T08:06:53.736Z,95145.47
2022-12-11T08:09:22.527Z,95133.00
2022-12-11T08:11:51.135Z,95153.88
2022-12-11T08:14:18.748Z,95148.06
2022-12-11T08:16:47.642Z,95137.25
2022-12-11T08:19:15.642Z,95146.09
2022-12-11T08:21:43.370Z,95141.47
2022-12-11T08:24:11.019Z,95138.22
2022-12-11T08:26:38.508Z,95142.31
2022-12-11T08:29:06.059Z,95140.66
2022-12-11T08:31:33.711Z,95124.47
2022-12-11T08:34:02.494Z,95152.84
2022-12-11T08:36:29.978Z,95155.41
2022-12-11T08:38:58.046Z,95153.59
2022-12-11T08:41:27.224Z,95152.88
2022-12-11T08:43:55.694Z,95152.75
2022-12-11T08:46:28.552Z,95155.69
2022-12-11T08:48:56.932Z,95148.25
2022-12-11T08:51:27.937Z,95161.41
2022-12-11T08:53:56.112Z,95155.94
2022-12-11T08:56:24.000Z,95155.72
2022-12-11T08:58:51.960Z,95152.06
2022-12-11T09:01:22.541Z,95123.13
2022-12-11T09:03:50.634Z,95152.13
2022-12-11T09:06:20.786Z,95162.13
2022-12-11T09:08:52.931Z,95151.59
2022-12-11T09:11:22.717Z,95152.22
2022-12-11T09:13:50.469Z,95141.06
2022-12-11T09:16:21.752Z,95142.84
2022-12-11T09:18:51.093Z,95154.91
2022-12-11T09:21:21.093Z,95142.75
2022-12-11T09:23:50.833Z,95154.94
2022-12-11T09:26:19.995Z,95153.03
2022-12-11T09:28:47.533Z,95144.94
2022-12-11T09:31:16.546Z,95149.31
2022-12-11T09:33:44.831Z,95137.91
2022-12-11T09:36:13.219Z,95156.97
2022-12-11T09:38:43.187Z,95149.53
2022-12-11T09:41:33.856Z,95143.44
2022-12-11T09:44:07.621Z,95137.56
2022-12-11T09:46:36.656Z,95135.59
2022-12-11T09:49:12.238Z,95138.38
2022-12-11T09:51:44.431Z,95134.03
2022-12-11T09:54:15.032Z,95143.28
2022-12-11T09:56:52.373Z,95126.00
2022-12-11T09:59:27.499Z,95140.03
2022-12-11T10:02:03.891Z,95133.72
2022-12-11T10:04:43.322Z,95139.00
2022-12-11T10:07:14.713Z,95134.53
2022-12-11T10:09:50.364Z,95141.81
2022-12-11T10:12:31.170Z,95122.69
2022-12-11T10:15:15.664Z,95139.03
2022-12-11T10:17:45.394Z,95137.28
2022-12-11T10:20:21.529Z,95122.75
2022-12-11T10:22:51.083Z,95130.03
2022-12-11T10:25:22.639Z,95120.59
2022-12-11T10:27:51.510Z,95122.97
2022-12-11T10:30:25.958Z,95125.75
2022-12-11T10:33:04.073Z,95111.19
2022-12-11T10:35:37.224Z,95107.09
2022-12-11T10:38:15.320Z,95111.03
2022-12-11T10:40:45.495Z,95096.47
2022-12-11T10:43:14.293Z,95108.47
2022-12-11T10:45:51.451Z,95092.19
2022-12-11T10:48:19.003Z,95083.13
2022-12-11T10:50:57.935Z,95082.56
2022-12-11T10:53:25.951Z,95086.66
2022-12-11T10:55:54.736Z,95074.28
2022-12-11T10:58:25.873Z,95082.75
2022-12-11T11:01:04.960Z,95073.09
2022-12-11T11:03:34.441Z,95079.22
2022-12-11T11:06:07.586Z,95069.56
2022-12-11T11:08:44.049Z,95069.94
2022-12-11T11:11:29.386Z,95074.25
2022-12-11T11:14:14.037Z,95074.44
2022-12-11T11:16:43.466Z,95068.53
2022-12-11T11:19:19.987Z,95063.00
2022-12-11T11:21:51.012Z,95060.84
2022-12-11T11:24:34.199Z,95060.25
2022-12-11T11:27:13.261Z,95065.16
2022-12-11T11:29:43.478Z,95057.69
2022-12-11T11:32:18.590Z,95049.06
2022-12-11T11:34:46.027Z,95047.66
2022-12-11T11:37:25.237Z,95048.63
2022-12-11T11:39:56.380Z,95034.44
2022-12-11T11:42:39.592Z,95035.41
2022-12-11T11:45:16.606Z,95039.69
2022-12-11T11:47:53.776Z,95037.50
2022-12-11T11:50:25.676Z,95025.28
2022-12-11T11:53:03.177Z,95038.00
2022-12-11T11:55:42.054Z,95033.28
2022-12-11T11:58:16.189Z,95042.94
2022-12-11T12:00:44.990Z,95032.28
2022-12-11T12:03:15.994Z,95034.63
2022-12-11T12:05:51.410Z,95030.63
2022-12-11T12:08:31.170Z,95024.69
2022-12-11T12:11:05.594Z,95031.16
2022-12-11T12:13:49.409Z,95030.59
2022-12-11T12:16:53.882Z,95035.13
2022-12-11T12:19:24.357Z,95022.22
2022-12-11T12:21:53.159Z,95029.59
2022-12-11T12:24:30.545Z,95025.44
2022-12-11T12:27:02.683Z,95024.69
2022-12-11T12:29:45.060Z,95030.75
2022-12-11T12:32:25.382Z,95028.41
2022-12-11T12:35:05.061Z,95022.50
2022-12-11T12:37:48.125Z,95026.44
2022-12-11T12:40:21.796Z,95025.16
2022-12-11T12:42:55.938Z,95017.22
2022-12-11T12:45:29.639Z,95012.06
2022-12-11T12:47:58.523Z,95009.50
2022-12-11T12:50:35.678Z,95017.22
2022-12-11T12:53:05.509Z,95012.88
2022-12-11T12:55:34.809Z,95014.91
2022-12-11T12:58:04.229Z,95022.41
2022-12-11T13:00:35.474Z,95022.19
2022-12-11T13:03:14.706Z,95024.75
2022-12-11T13:05:44.236Z,95034.00
2022-12-11T13:08:13.361Z,95030.03
2022-12-11T13:10:43.257Z,95028.47
2022-12-11T13:13:30.693Z,95031.00
2022-12-11T13:16:07.766Z,95018.75
2022-12-11T13:18:38.440Z,95026.78
2022-12-11T13:21:26.968Z,95027.94
2022-12-11T13:23:54.730Z,95041.94
2022-12-11T13:26:29.128Z,95037.63
2022-12-11T13:28:58.031Z,95044.25
2022-12-11T13:31:36.184Z,95042.28
2022-12-11T13:34:17.746Z,95036.97
2022-12-11T13:36:49.941Z,95030.66
2022-12-11T13:39:20.015Z,95039.97
2022-12-11T13:41:51.316Z,95035.81
2022-12-11T13:44:23.657Z,95037.69
2022-12-11T13:46:53.826Z,95042.47
2022-12-11T13:49:25.474Z,95043.16
2022-12-11T13:51:54.995Z,95039.56
2022-12-11T13:54:22.629Z,95037.03
2022-12-11T13:57:02.464Z,95042.50
2022-12-11T13:59:32.755Z,95041.50
2022-12-11T14:02:05.158Z,95044.81
2022-12-11T14:04:35.280Z,95048.00
2022-12-11T14:07:06.854Z,95052.97
2022-12-11T14:09:34.466Z,95051.44
2022-12-11T14:12:01.926Z,95053.63
2022-12-11T14:14:40.774Z,95059.41
2022-12-11T14:17:14.913Z,95062.19
2022-12-11T14:19:47.650Z,95060.22
2022-12-11T14:22:19.942Z,95059.00
2022-12-11T14:24:52.470Z,95065.13
2022-12-11T14:27:21.031Z,95058.22
2022-12-11T14:29:48.926Z,95068.25
2022-12-11T14:32:21.900Z,95066.28
2022-12-11T14:34:51.628Z,95064.13
2022-12-11T14:37:22.036Z,95061.75
2022-12-11T14:39:56.825Z,95060.97
2022-12-11T14:42:26.444Z,95062.88
2022-12-11T14:44:58.363Z,95065.22
2022-12-11T14:47:29.941Z,95066.44
2022-12-11T14:50:04.809Z,95073.56
2022-12-11T14:52:37.613Z,95059.41
2022-12-11T14:55:08.677Z,95058.00
2022-12-11T14:57:36.976Z,95070.63
2022-12-11T15:00:07.257Z,95063.53
2022-12-11T15:02:36.356Z,95060.81
2022-12-11T15:05:15.727Z,95073.22
2022-12-11T15:07:44.895Z,95081.53
2022-12-11T15:10:24.917Z,95083.72
2022-12-11T15:12:52.582Z,95064.41
2022-12-11T15:15:20.492Z,95071.69
2022-12-11T15:17:52.900Z,95078.81
2022-12-11T15:20:25.551Z,95046.03
2022-12-11T15:22:53.768Z,95088.09
2022-12-11T15:25:23.537Z,95077.69
2022-12-11T15:27:53.853Z,95089.91
2022-12-11T15:30:30.381Z,95070.03
2022-12-11T15:33:21.825Z,95095.81
2022-12-11T15:35:57.208Z,95072.63
2022-12-11T15:38:36.863Z,95088.78
2022-12-11T15:41:05.079Z,95084.22
2022-12-11T15:43:36.977Z,95076.59
2022-12-11T15:46:06.256Z,95098.22
2022-12-11T15:48:34.100Z,95095.88
2022-12-11T15:51:03.607Z,95040.81
2022-12-11T15:53:31.071Z,95102.38
2022-12-11T15:55:59.916Z,95095.50
2022-12-11T15:58:28.125Z,95092.16
2022-12-11T16:00:57.273Z,95104.53
2022-12-11T16:03:25.299Z,95090.59
2022-12-11T16:05:53.964Z,95090.41
2022-12-11T16:08:24.732Z,95099.66
2022-12-11T16:10:54.465Z,95103.00
2022-12-11T16:13:22.292Z,95098.66
2022-12-11T16:15:51.725Z,95103.16
2022-12-11T16:18:22.069Z,95088.25
2022-12-11T16:20:50.566Z,95073.88
2022-12-11T16:23:18.713Z,95094.13
2022-12-11T16:25:48.129Z,95082.31
2022-12-11T16:28:18.286Z,95087.59
2022-12-11T16:30:45.974Z,95081.53
2022-12-11T16:33:14.515Z,95089.94
2022-12-11T16:35:42.645Z,95087.75
2022-12-11T16:38:11.082Z,95074.19
2022-12-11T16:40:38.676Z,95087.53
2022-12-11T16:43:08.257Z,95092.81
2022-12-11T16:45:36.350Z,95087.69
2022-12-11T16:48:04.899Z,95087.09
2022-12-11T16:50:33.124Z,95090.00
2022-12-11T16:53:00.681Z,95089.78
2022-12-11T16:55:28.127Z,95082.13
2022-12-11T16:57:55.543Z,95079.78
2022-12-11T17:00:25.549Z,95089.59
2022-12-11T17:02:53.207Z,95091.13
2022-12-11T17:05:20.787Z,95098.19
2022-12-11T17:07:48.334Z,95094.06
2022-12-11T17:10:15.800Z,95085.44
2022-12-11T17:12:43.307Z,95086.56
2022-12-11T17:15:11.269Z,95080.03
2022-12-11T17:17:40.206Z,95086.66
2022-12-11T17:20:08.946Z,95081.56
2022-12-11T17:22:37.088Z,95095.03
2022-12-11T17:25:04.852Z,95087.66
2022-12-11T17:27:32.375Z,95093.13
2022-12-11T17:30:00.074Z,95091.94
2022-12-11T17:32:27.570Z,95090.34
2022-12-11T17:34:56.333Z,95099.94
2022-12-11T17:37:23.782Z,95094.00
2022-12-11T17:39:51.200Z,95087.69
2022-12-11T17:42:18.629Z,95089.81
2022-12-11T17:44:46.327Z,95072.09
2022-12-11T17:47:13.781Z,95082.88
2022-12-11T17:49:41.262Z,95071.00
2022-12-11T17:52:10.033Z,95086.88
2022-12-11T17:54:39.113Z,95091.97
2022-12-11T17:57:07.333Z,95077.44
2022-12-11T17:59:34.983Z,95080.34
2022-12-11T18:02:02.585Z,95086.81
2022-12-11T18:04:31.193Z,95084.81
2022-12-11T18:06:58.772Z,95088.22
2022-12-11T18:09:27.716Z,95055.06
2022-12-11T18:11:55.285Z,95081.84
2022-12-11T18:14:23.120Z,95079.84
2022-12-11T18:16:52.043Z,95081.34
2022-12-11T18:19:20.134Z,95086.09
2022-12-11T18:21:47.619Z,95086.44
2022-12-11T18:24:15.427Z,95082.16
2022-12-11T18:26:44.387Z,95085.06
2022-12-11T18:29:12.716Z,95077.56
2022-12-11T18:31:42.914Z,95088.22
2022-12-11T18:34:11.574Z,95070.53
2022-12-11T18:36:40.580Z,95084.22
2022-12-11T18:39:08.157Z,95082.63
2022-12-11T18:41:35.828Z,95094.53
2022-12-11T18:44:09.527Z,95088.63
2022-12-11T18:46:39.345Z,95093.78
2022-12-11T18:49:07.261Z,95077.56
2022-12-11T18:51:35.276Z,95078.47
2022-12-11T18:54:03.044Z,95093.38
2022-12-11T18:56:30.647Z,95088.28
2022-12-11T18:58:58.210Z,95089.50
2022-12-11T19:01:29.045Z,95097.06
2022-12-11T19:04:03.246Z,95083.91
2022-12-11T19:06:36.526Z,95081.72
2022-12-11T19:09:07.639Z,95092.44
2022-12-11T19:11:36.412Z,95087.72
2022-12-11T19:14:06.114Z,95088.78
2022-12-11T19:16:37.137Z,95085.97
2022-12-11T19:19:07.009Z,95089.03
2022-12-11T19:21:35.306Z,95046.09
2022-12-11T19:24:02.850Z,95064.97
2022-12-11T19:26:30.656Z,95095.00
2022-12-11T19:28:59.950Z,95102.00
2022-12-11T19:31:30.248Z,95104.63
2022-12-11T19:33:59.573Z,95104.97
2022-12-11T19:36:28.910Z,95097.19
2022-12-11T19:39:01.419Z,95084.81
2022-12-11T19:41:30.247Z,95094.88
2022-12-11T19:43:58.812Z,95079.78
2022-12-11T19:46:27.071Z,95088.28
2022-12-11T19:48:56.993Z,95073.72
2022-12-11T19:51:29.532Z,95079.38
2022-12-11T19:53:57.201Z,95088.28
2022-12-11T19:56:25.539Z,95084.63
2022-12-11T19:58:53.386Z,95075.50
2022-12-11T20:01:24.977Z,95080.44
2022-12-11T20:03:52.752Z,95084.56
2022-12-11T20:06:20.449Z,95091.97
2022-12-11T20:08:49.625Z,95085.03
2022-12-11T20:11:19.644Z,95082.16
2022-12-11T20:13:47.595Z,95092.41
2022-12-11T20:16:16.262Z,95083.91
2022-12-11T20:18:43.939Z,95071.66
2022-12-11T20:21:14.824Z,95092.91
2022-12-11T20:23:42.899Z,95083.31
2022-12-11T20:26:13.686Z,95087.97
2022-12-11T20:28:42.244Z,95099.34
2022-12-11T20:31:18.262Z,95094.44
2022-12-11T20:33:48.403Z,95092.25
2022-12-11T20:36:17.482Z,95095.75
2022-12-11T20:38:45.169Z,95098.47
2022-12-11T20:41:15.595Z,95096.19
2022-12-11T20:43:43.481Z,95087.97
2022-12-11T20:46:13.637Z,95094.88
2022-12-11T20:48:42.362Z,95102.34
2022-12-11T20:51:11.990Z,95083.41
2022-12-11T20:53:39.917Z,95082.78
2022-12-11T20:56:12.885Z,95084.19
2022-12-11T20:58:42.038Z,95088.72
2022-12-11T21:01:15.657Z,95074.25
2022-12-11T21:03:43.336Z,95083.47
2022-12-11T21:06:18.467Z,95084.06
2022-12-11T21:08:45.922Z,95083.09
2022-12-11T21:11:13.453Z,95091.41
2022-12-11T21:13:42.561Z,95089.22
2022-12-11T21:16:11.452Z,95087.66
2022-12-11T21:18:39.621Z,95086.97
2022-12-11T21:21:07.550Z,95101.31
2022-12-11T21:23:35.077Z,95094.44
2022-12-11T21:26:03.099Z,95101.78
2022-12-11T21:28:35.475Z,95100.47
2022-12-11T21:31:06.788Z,95101.72
2022-12-11T21:33:34.387Z,95095.94
2022-12-11T21:36:01.935Z,95094.09
2022-12-11T21:38:30.515Z,95090.38
2022-12-11T21:40:58.496Z,95090.28
2022-12-11T21:43:26.000Z,95085.22
2022-12-11T21:46:01.962Z,95086.69
2022-12-11T21:48:31.094Z,95090.16
2022-12-11T21:51:06.705Z,95082.56
2022-12-11T21:53:34.511Z,95100.59
2022-12-11T21:56:05.962Z,95095.03
2022-12-11T21:58:33.452Z,95097.72
2022-12-11T22:01:00.987Z,95092.66
2022-12-11T22:03:28.429Z,95098.19
2022-12-11T22:05:57.213Z,95093.72
2022-12-11T22:08:24.696Z,95098.34
2022-12-11T22:10:52.206Z,95104.56
2022-12-11T22:13:19.637Z,95100.16
2022-12-11T22:15:47.080Z,95103.94
2022-12-11T22:18:14.567Z,95100.31
2022-12-11T22:20:42.227Z,95116.69
2022-12-11T22:23:11.114Z,95111.97
2022-12-11T22:25:38.733Z,95105.75
2022-12-11T22:28:06.282Z,95116.69
2022-12-11T22:30:33.758Z,95110.13
2022-12-11T22:33:01.184Z,95121.44
2022-12-11T22:35:28.635Z,95118.66
2022-12-11T22:37:56.341Z,95115.66
2022-12-11T22:40:26.547Z,95127.56
2022-12-11T22:42:54.141Z,95121.53
2022-12-11T22:45:21.734Z,95126.72
2022-12-11T22:47:49.278Z,95126.28
2022-12-11T22:50:16.896Z,95132.03
2022-12-11T22:52:45.229Z,95133.69
2022-12-11T22:55:12.951Z,95125.94
2022-12-11T22:57:42.418Z,95124.22
2022-12-11T23:00:13.330Z,95124.16
2022-12-11T23:02:41.208Z,95127.66
2022-12-11T23:05:11.215Z,95129.81
2022-12-11T23:07:39.714Z,95121.19
2022-12-11T23:10:09.735Z,95132.41
2022-12-11T23:12:37.770Z,95117.75
2022-12-11T23:15:07.885Z,95127.13
2022-12-11T23:17:35.907Z,95125.69
2022-12-11T23:20:05.612Z,95143.94
2022-12-11T23:22:33.821Z,95137.28
2022-12-11T23:25:01.691Z,95131.53
2022-12-11T23:27:29.661Z,95139.56
2022-12-11T23:29:57.205Z,95134.25
2022-12-11T23:32:26.023Z,95130.16
2022-12-11T23:34:53.486Z,95138.91
2022-12-11T23:37:20.893Z,95147.03
2022-12-11T23:39:48.319Z,95145.00
2022-12-11T23:42:15.853Z,95147.44
2022-12-11T23:44:43.503Z,95151.66
2022-12-11T23:47:10.986Z,95135.03
2022-12-11T23:49:39.780Z,95145.56
2022-12-11T23:52:07.268Z,95141.63
2022-12-11T23:54:34.801Z,95149.75
2022-12-11T23:57:02.242Z,95152.31
2022-12-11T23:59:29.679Z,95154.34
